createdAt,value
2022-08-10T00:01:51.846Z,44.07
2022-08-10T00:04:22.402Z,44.00
2022-08-10T00:06:53.301Z,43.97
2022-08-10T00:09:23.835Z,44.01
2022-08-10T00:11:52.598Z,44.50
2022-08-10T00:14:21.132Z,44.42
2022-08-10T00:16:49.671Z,44.76
2022-08-10T00:19:18.458Z,45.15
2022-08-10T00:21:48.377Z,44.98
2022-08-10T00:24:17.100Z,45.12
2022-08-10T00:27:52.895Z,45.35
2022-08-10T00:29:35.482Z,45.74
2022-08-10T00:32:05.170Z,45.47
2022-08-10T00:34:34.719Z,45.70
2022-08-10T00:37:03.339Z,46.36
2022-08-10T00:39:36.038Z,46.04
2022-08-10T00:42:08.454Z,45.97
2022-08-10T00:44:38.664Z,45.87
2022-08-10T00:47:07.261Z,45.81
2022-08-10T00:49:38.957Z,46.37
2022-08-10T00:52:08.487Z,46.04
2022-08-10T00:54:38.477Z,46.18
2022-08-10T00:57:17.587Z,46.54
2022-08-10T00:59:59.021Z,46.65
2022-08-10T01:02:33.383Z,46.34
2022-08-10T01:05:05.780Z,46.77
2022-08-10T01:08:04.567Z,46.46
2022-08-10T01:10:42.794Z,46.75
2022-08-10T01:13:22.326Z,47.02
2022-08-10T01:15:57.793Z,47.51
2022-08-10T01:18:37.829Z,47.51
2022-08-10T01:21:30.482Z,47.56
2022-08-10T01:24:10.235Z,47.57
2022-08-10T01:27:01.182Z,47.66
2022-08-10T01:29:56.539Z,48.23
2022-08-10T01:32:34.294Z,48.38
2022-08-10T01:35:11.524Z,48.43
2022-08-10T01:37:51.903Z,48.29
2022-08-10T01:40:26.645Z,48.68
2022-08-10T01:43:08.057Z,48.65
2022-08-10T01:45:45.794Z,48.51
2022-08-10T01:48:32.741Z,48.35
2022-08-10T01:51:14.681Z,48.41
2022-08-10T01:53:47.239Z,48.59
2022-08-10T01:56:17.903Z,48.73
2022-08-10T01:58:49.764Z,48.70
2022-08-10T02:01:23.419Z,48.81
2022-08-10T02:04:03.531Z,48.95
2022-08-10T02:06:37.558Z,49.14
2022-08-10T02:09:08.402Z,49.33
2022-08-10T02:12:06.435Z,49.76
2022-08-10T02:14:32.925Z,49.57
2022-08-10T02:17:05.987Z,49.43
2022-08-10T02:19:36.821Z,49.52
2022-08-10T02:22:36.594Z,49.84
2022-08-10T02:24:58.901Z,50.04
2022-08-10T02:27:28.969Z,50.09
2022-08-10T02:29:59.225Z,50.12
2022-08-10T02:32:38.318Z,50.14
2022-08-10T02:35:18.621Z,50.32
2022-08-10T02:37:54.165Z,50.25
2022-08-10T02:45:02.315Z,50.03
2022-08-10T02:45:25.439Z,50.25
2022-08-10T02:46:18.244Z,50.24
2022-08-10T02:48:58.209Z,50.40
2022-08-10T02:52:07.928Z,50.39
2022-08-10T02:54:24.452Z,50.24
2022-08-10T02:56:57.576Z,50.29
2022-08-10T02:59:40.047Z,50.51
2022-08-10T03:02:13.269Z,50.70
2022-08-10T03:04:55.007Z,50.74
2022-08-10T03:07:43.087Z,50.68
2022-08-10T03:10:16.437Z,50.82
2022-08-10T03:12:47.117Z,50.96
2022-08-10T03:15:17.252Z,50.83
2022-08-10T03:17:58.314Z,50.52
2022-08-10T03:20:38.084Z,50.58
2022-08-10T03:23:10.961Z,50.67
2022-08-10T03:25:40.107Z,50.95
2022-08-10T03:28:09.143Z,50.93
2022-08-10T03:30:38.121Z,51.08
2022-08-10T03:33:08.844Z,51.29
2022-08-10T03:35:38.715Z,51.39
2022-08-10T03:38:07.204Z,51.40
2022-08-10T03:40:46.227Z,51.50
2022-08-10T03:43:18.525Z,51.67
2022-08-10T03:45:54.870Z,51.47
2022-08-10T03:48:44.568Z,51.53
2022-08-10T03:51:17.220Z,51.77
2022-08-10T03:54:05.626Z,51.83
2022-08-10T03:56:38.206Z,51.75
2022-08-10T03:59:08.206Z,51.86
2022-08-10T04:02:52.879Z,51.75
2022-08-10T04:04:29.716Z,51.88
2022-08-10T04:07:00.637Z,51.57
2022-08-10T04:09:54.764Z,51.59
2022-08-10T04:12:19.148Z,51.85
2022-08-10T04:14:50.771Z,51.99
2022-08-10T04:18:01.358Z,51.83
2022-08-10T04:20:19.442Z,51.71
2022-08-10T04:22:53.522Z,51.82
2022-08-10T04:25:23.855Z,52.29
2022-08-10T04:27:53.505Z,52.43
2022-08-10T04:30:22.330Z,52.25
2022-08-10T04:32:54.983Z,52.01
2022-08-10T04:35:25.128Z,51.93
2022-08-10T04:37:57.099Z,51.89
2022-08-10T04:40:30.491Z,52.31
2022-08-10T04:43:05.797Z,52.25
2022-08-10T04:45:49.682Z,52.46
2022-08-10T04:48:42.497Z,52.35
2022-08-10T04:51:16.007Z,52.55
2022-08-10T04:54:03.175Z,52.65
2022-08-10T04:56:36.863Z,52.86
2022-08-10T04:59:06.317Z,53.14
2022-08-10T05:02:22.015Z,53.13
2022-08-10T05:04:37.746Z,53.36
2022-08-10T05:07:15.815Z,53.26
2022-08-10T05:10:02.312Z,53.36
2022-08-10T05:12:36.515Z,53.35
2022-08-10T05:15:08.215Z,52.84
2022-08-10T05:17:36.903Z,52.93
2022-08-10T05:20:07.193Z,52.83
2022-08-10T05:22:37.850Z,53.08
2022-08-10T05:25:10.859Z,53.02
2022-08-10T05:27:39.825Z,52.97
2022-08-10T05:30:10.325Z,52.98
2022-08-10T05:32:56.869Z,52.91
2022-08-10T05:35:26.721Z,53.20
2022-08-10T05:38:10.473Z,53.34
2022-08-10T05:40:47.433Z,53.37
2022-08-10T05:43:19.289Z,53.17
2022-08-10T05:46:17.954Z,52.69
2022-08-10T05:48:53.818Z,52.64
2022-08-10T05:51:27.495Z,52.10
2022-08-10T05:54:01.257Z,51.83
2022-08-10T05:56:56.139Z,51.58
2022-08-10T06:00:33.233Z,50.85
2022-08-10T06:02:32.984Z,49.96
2022-08-10T06:05:07.219Z,49.39
2022-08-10T06:07:38.488Z,48.42
2022-08-10T06:10:10.566Z,47.83
2022-08-10T06:12:55.268Z,47.41
2022-08-10T06:15:43.349Z,47.09
2022-08-10T06:18:15.697Z,46.83
2022-08-10T06:20:44.668Z,46.30
2022-08-10T06:23:14.375Z,45.28
2022-08-10T06:26:09.916Z,43.60
2022-08-10T06:28:35.404Z,42.91
2022-08-10T06:31:05.520Z,41.76
2022-08-10T06:33:36.787Z,40.45
2022-08-10T06:36:07.562Z,39.16
2022-08-10T06:38:39.501Z,37.65
2022-08-10T06:41:19.448Z,36.49
2022-08-10T06:43:58.021Z,35.55
2022-08-10T06:46:29.189Z,34.70
2022-08-10T06:49:02.709Z,34.17
2022-08-10T06:51:33.457Z,32.80
2022-08-10T06:54:05.792Z,32.19
2022-08-10T06:56:43.696Z,31.19
2022-08-10T06:59:27.278Z,30.36
2022-08-10T07:02:00.792Z,28.88
2022-08-10T07:04:35.299Z,28.39
2022-08-10T07:07:05.601Z,28.53
2022-08-10T07:09:37.795Z,27.85
2022-08-10T07:12:09.603Z,27.55
2022-08-10T07:14:46.813Z,26.52
2022-08-10T07:17:18.484Z,26.43
2022-08-10T07:19:49.473Z,25.44
2022-08-10T07:23:27.284Z,24.82
2022-08-10T07:25:12.042Z,24.19
2022-08-10T07:28:00.419Z,24.47
2022-08-10T07:30:33.721Z,24.43
2022-08-10T07:33:02.721Z,23.99
2022-08-10T07:35:41.776Z,23.89
2022-08-10T07:38:19.052Z,23.47
2022-08-10T07:40:49.862Z,23.48
2022-08-10T07:43:20.094Z,23.53
2022-08-10T07:45:50.888Z,23.41
2022-08-10T07:48:23.589Z,23.11
2022-08-10T07:50:57.977Z,23.32
2022-08-10T07:53:29.140Z,23.65
2022-08-10T07:56:01.882Z,23.65
2022-08-10T07:58:46.440Z,23.61
2022-08-10T08:01:25.046Z,23.83
2022-08-10T08:04:10.706Z,24.25
2022-08-10T08:06:42.019Z,24.89
2022-08-10T08:09:10.788Z,25.51
2022-08-10T08:11:40.575Z,26.26
2022-08-10T08:14:10.469Z,26.27
2022-08-10T08:16:43.572Z,26.88
2022-08-10T08:19:37.130Z,26.89
2022-08-10T08:24:07.809Z,27.24
2022-08-10T08:24:52.687Z,27.19
2022-08-10T08:27:22.144Z,27.55
2022-08-10T08:29:52.987Z,27.64
2022-08-10T08:32:24.365Z,28.05
2022-08-10T08:34:57.089Z,28.09
2022-08-10T08:38:31.941Z,28.00
2022-08-10T08:40:23.126Z,28.43
2022-08-10T08:43:17.991Z,27.70
2022-08-10T08:46:11.198Z,27.57
2022-08-10T08:48:55.993Z,27.67
2022-08-10T08:52:07.749Z,28.72
2022-08-10T08:54:39.031Z,28.58
2022-08-10T08:57:23.016Z,28.60
2022-08-10T09:00:10.586Z,28.89
2022-08-10T09:03:11.358Z,29.17
2022-08-10T09:05:58.835Z,28.65
2022-08-10T09:09:04.804Z,28.36
2022-08-10T09:11:55.615Z,28.25
2022-08-10T09:14:31.928Z,27.83
2022-08-10T09:17:10.835Z,27.48
2022-08-10T09:19:47.783Z,27.67
2022-08-10T09:22:27.215Z,27.10
2022-08-10T09:25:00.310Z,26.56
2022-08-10T09:27:43.358Z,26.19
2022-08-10T09:30:16.379Z,25.70
2022-08-10T09:36:14.152Z,25.87
2022-08-10T09:36:26.785Z,25.98
2022-08-10T09:38:53.386Z,26.19
2022-08-10T09:41:34.234Z,25.62
2022-08-10T09:44:13.050Z,25.22
2022-08-10T09:46:59.998Z,24.98
2022-08-10T09:49:54.390Z,24.76
2022-08-10T09:52:33.233Z,25.06
2022-08-10T09:55:12.700Z,24.40
2022-08-10T09:57:56.792Z,24.20
2022-08-10T10:00:31.841Z,24.45
2022-08-10T10:03:10.474Z,24.46
2022-08-10T10:05:52.393Z,24.08
2022-08-10T10:08:31.913Z,23.71
2022-08-10T10:11:09.289Z,23.07
2022-08-10T10:14:02.505Z,22.79
2022-08-10T10:16:47.345Z,22.80
2022-08-10T10:19:36.165Z,22.40
2022-08-10T10:22:26.461Z,21.68
2022-08-10T10:25:20.991Z,21.65
2022-08-10T10:27:59.499Z,21.92
2022-08-10T10:30:37.859Z,22.80
2022-08-10T10:33:15.238Z,22.66
2022-08-10T10:35:52.318Z,22.25
2022-08-10T10:38:24.492Z,22.85
2022-08-10T10:41:01.832Z,23.20
2022-08-10T10:43:42.362Z,23.18
2022-08-10T10:46:25.826Z,22.23
2022-08-10T10:49:04.978Z,22.34
2022-08-10T10:51:39.818Z,22.33
2022-08-10T10:54:10.997Z,21.15
2022-08-10T10:56:51.378Z,21.15
2022-08-10T10:59:55.958Z,21.70
2022-08-10T11:02:36.687Z,21.40
2022-08-10T11:05:16.487Z,21.11
2022-08-10T11:07:53.177Z,20.43
2022-08-10T11:10:32.926Z,20.49
2022-08-10T11:14:24.852Z,20.35
2022-08-10T11:16:14.592Z,20.37
2022-08-10T11:18:58.072Z,19.87
2022-08-10T11:21:44.521Z,19.47
2022-08-10T11:24:47.491Z,19.23
2022-08-10T11:27:22.066Z,19.75
2022-08-10T11:30:00.444Z,19.26
2022-08-10T11:32:36.897Z,18.86
2022-08-10T11:35:13.594Z,19.05
2022-08-10T11:38:31.230Z,19.58
2022-08-10T11:40:45.726Z,20.28
2022-08-10T11:43:22.081Z,20.30
2022-08-10T11:45:55.952Z,19.87
2022-08-10T11:48:53.531Z,19.14
2022-08-10T11:51:31.607Z,18.41
2022-08-10T11:54:06.573Z,17.75
2022-08-10T11:56:50.909Z,17.62
2022-08-10T11:59:40.031Z,17.71
2022-08-10T12:02:10.605Z,17.40
2022-08-10T12:04:46.699Z,17.08
2022-08-10T12:10:02.210Z,17.57
2022-08-10T12:10:13.610Z,17.38
2022-08-10T12:12:48.426Z,17.53
2022-08-10T12:15:25.493Z,16.99
2022-08-10T12:17:57.078Z,16.83
2022-08-10T12:20:31.054Z,18.02
2022-08-10T12:23:03.090Z,17.51
2022-08-10T12:25:57.025Z,18.28
2022-08-10T12:28:49.158Z,18.63
2022-08-10T12:31:24.611Z,19.48
2022-08-10T12:34:05.402Z,19.34
2022-08-10T12:36:41.508Z,18.63
2022-08-10T12:39:16.991Z,19.03
2022-08-10T12:41:51.847Z,18.37
2022-08-10T12:44:41.495Z,18.54
2022-08-10T12:47:20.143Z,18.34
2022-08-10T12:50:29.391Z,18.91
2022-08-10T12:53:06.626Z,18.14
2022-08-10T12:55:39.581Z,19.02
2022-08-10T12:58:59.102Z,18.95
2022-08-10T13:01:16.281Z,18.06
2022-08-10T13:04:23.370Z,18.91
2022-08-10T13:06:41.812Z,19.44
2022-08-10T13:09:13.112Z,19.59
2022-08-10T13:12:35.780Z,18.66
2022-08-10T13:14:38.542Z,18.96
2022-08-10T13:17:09.383Z,19.12
2022-08-10T13:19:56.140Z,19.14
2022-08-10T13:22:30.290Z,19.10
2022-08-10T13:25:04.343Z,19.37
2022-08-10T13:28:03.255Z,19.12
2022-08-10T13:30:35.597Z,19.11
2022-08-10T13:33:08.677Z,18.53
2022-08-10T13:35:37.931Z,18.33
2022-08-10T13:38:08.308Z,17.91
2022-08-10T13:40:40.087Z,18.40
2022-08-10T13:43:10.175Z,18.21
2022-08-10T13:45:47.903Z,18.95
2022-08-10T13:48:21.767Z,18.07
2022-08-10T13:50:53.554Z,19.06
2022-08-10T13:53:23.580Z,18.81
2022-08-10T13:55:56.740Z,19.39
2022-08-10T13:58:30.426Z,19.35
2022-08-10T14:01:01.309Z,19.46
2022-08-10T14:03:35.373Z,19.42
2022-08-10T14:06:07.003Z,20.21
2022-08-10T14:08:36.898Z,20.43
2022-08-10T14:11:12.811Z,20.61
2022-08-10T14:13:46.732Z,20.01
2022-08-10T14:16:15.478Z,20.44
2022-08-10T14:18:45.942Z,20.60
2022-08-10T14:21:15.178Z,20.30
2022-08-10T14:23:52.972Z,20.96
2022-08-10T14:26:26.230Z,20.72
2022-08-10T14:28:57.498Z,20.97
2022-08-10T14:31:33.610Z,20.75
2022-08-10T14:34:06.803Z,21.10
2022-08-10T14:36:43.448Z,20.88
2022-08-10T14:39:16.367Z,21.06
2022-08-10T14:42:04.553Z,21.79
2022-08-10T14:44:46.854Z,21.67
2022-08-10T14:47:52.232Z,22.08
2022-08-10T14:50:07.697Z,23.35
2022-08-10T14:52:43.911Z,22.90
2022-08-10T14:55:19.510Z,22.88
2022-08-10T14:58:17.276Z,23.08
2022-08-10T15:00:43.031Z,23.69
2022-08-10T15:04:00.931Z,24.09
2022-08-10T15:06:17.251Z,24.62
2022-08-10T15:08:48.049Z,25.83
2022-08-10T15:12:13.389Z,25.20
2022-08-10T15:14:41.613Z,25.78
2022-08-10T15:17:03.247Z,26.01
2022-08-10T15:20:02.422Z,26.25
2022-08-10T15:22:47.094Z,25.72
2022-08-10T15:25:25.221Z,26.40
2022-08-10T15:27:58.131Z,25.92
2022-08-10T15:30:42.920Z,26.75
2022-08-10T15:34:02.206Z,25.99
2022-08-10T15:36:41.928Z,25.97
2022-08-10T15:40:22.305Z,27.03
2022-08-10T15:42:08.581Z,27.27
2022-08-10T15:44:43.169Z,27.05
2022-08-10T15:47:20.998Z,27.32
2022-08-10T15:49:56.275Z,26.60
2022-08-10T15:52:38.774Z,27.97
2022-08-10T15:55:43.257Z,28.44
2022-08-10T15:58:14.345Z,29.05
2022-08-10T16:00:50.918Z,29.34
2022-08-10T16:03:26.681Z,29.85
2022-08-10T16:06:01.989Z,29.48
2022-08-10T16:08:56.125Z,29.57
2022-08-10T16:11:37.466Z,30.29
2022-08-10T16:14:17.462Z,29.22
2022-08-10T16:16:51.281Z,29.20
2022-08-10T16:19:24.896Z,30.66
2022-08-10T16:22:00.195Z,31.62
2022-08-10T16:24:33.866Z,31.57
2022-08-10T16:27:06.628Z,31.87
2022-08-10T16:29:56.192Z,32.12
2022-08-10T16:32:26.667Z,31.95
2022-08-10T16:34:57.748Z,31.70
2022-08-10T16:37:58.911Z,32.10
2022-08-10T16:40:24.098Z,32.90
2022-08-10T16:42:54.560Z,32.10
2022-08-10T16:45:30.311Z,31.02
2022-08-10T16:47:59.507Z,31.89
2022-08-10T16:50:32.251Z,32.09
2022-08-10T16:53:03.599Z,32.47
2022-08-10T16:55:49.478Z,32.65
2022-08-10T16:58:27.470Z,33.92
2022-08-10T17:01:02.129Z,35.29
2022-08-10T17:04:07.835Z,34.96
2022-08-10T17:06:27.947Z,35.46
2022-08-10T17:08:59.649Z,35.85
2022-08-10T17:11:31.696Z,35.52
2022-08-10T17:14:03.266Z,35.39
2022-08-10T17:16:36.335Z,35.33
2022-08-10T17:19:08.583Z,35.86
2022-08-10T17:21:51.916Z,36.23
2022-08-10T17:24:25.243Z,35.99
2022-08-10T17:26:57.693Z,36.49
2022-08-10T17:29:57.315Z,36.38
2022-08-10T17:32:25.696Z,36.46
2022-08-10T17:34:57.930Z,37.22
2022-08-10T17:37:37.620Z,38.01
2022-08-10T17:40:10.047Z,38.13
2022-08-10T17:42:41.021Z,37.67
2022-08-10T17:45:20.900Z,38.87
2022-08-10T17:48:09.460Z,39.02
2022-08-10T17:50:39.950Z,39.14
2022-08-10T17:53:16.757Z,39.17
2022-08-10T17:55:47.364Z,39.79
2022-08-10T17:58:18.738Z,40.49
2022-08-10T18:00:50.088Z,40.78
2022-08-10T18:03:25.641Z,40.82
2022-08-10T18:05:56.385Z,41.23
2022-08-10T18:08:30.790Z,41.24
2022-08-10T18:11:00.206Z,41.74
2022-08-10T18:13:56.022Z,41.99
2022-08-10T18:16:26.071Z,41.86
2022-08-10T18:19:00.570Z,42.46
2022-08-10T18:21:32.246Z,43.14
2022-08-10T18:24:07.569Z,43.24
2022-08-10T18:26:38.252Z,43.68
2022-08-10T18:29:12.758Z,43.93
2022-08-10T18:31:48.984Z,43.49
2022-08-10T18:34:20.948Z,43.76
2022-08-10T18:36:51.014Z,43.74
2022-08-10T18:39:27.183Z,43.56
2022-08-10T18:42:04.665Z,43.94
2022-08-10T18:44:39.077Z,43.79
2022-08-10T18:47:13.953Z,44.62
2022-08-10T18:49:55.529Z,44.71
2022-08-10T18:52:28.177Z,44.96
2022-08-10T18:55:14.254Z,45.33
2022-08-10T18:58:12.572Z,45.56
2022-08-10T19:00:54.779Z,45.70
2022-08-10T19:03:35.939Z,45.85
2022-08-10T19:06:23.775Z,46.08
2022-08-10T19:09:47.470Z,46.45
2022-08-10T19:12:31.214Z,46.86
2022-08-10T19:15:10.009Z,47.30
2022-08-10T19:18:03.157Z,47.45
2022-08-10T19:20:39.127Z,47.67
2022-08-10T19:23:18.363Z,47.90
2022-08-10T19:26:42.866Z,48.19
2022-08-10T19:28:55.544Z,48.36
2022-08-10T19:31:42.002Z,48.66
2022-08-10T19:34:34.931Z,48.99
2022-08-10T19:37:15.406Z,49.32
2022-08-10T19:40:00.459Z,49.65
2022-08-10T19:42:36.371Z,49.79
2022-08-10T19:45:56.153Z,49.93
2022-08-10T19:48:16.621Z,50.15
2022-08-10T19:50:48.772Z,50.68
2022-08-10T19:53:26.147Z,50.55
2022-08-10T19:56:18.549Z,51.33
2022-08-10T19:58:57.571Z,51.68
2022-08-10T20:01:54.393Z,51.84
2022-08-10T20:04:28.822Z,52.10
2022-08-10T20:07:10.083Z,52.29
2022-08-10T20:09:47.351Z,52.45
2022-08-10T20:12:24.856Z,53.21
2022-08-10T20:15:03.127Z,53.39
2022-08-10T20:17:45.019Z,53.85
2022-08-10T20:20:30.676Z,54.60
2022-08-10T20:23:09.659Z,54.61
2022-08-10T20:25:39.770Z,55.25
2022-08-10T20:28:19.427Z,54.91
2022-08-10T20:30:53.286Z,55.93
2022-08-10T20:33:29.344Z,55.92
2022-08-10T20:36:04.450Z,56.70
2022-08-10T20:38:39.750Z,56.89
2022-08-10T20:41:17.628Z,57.39
2022-08-10T20:44:12.753Z,57.38
2022-08-10T20:46:46.958Z,57.34
2022-08-10T20:49:30.338Z,57.01
2022-08-10T20:52:03.333Z,57.34
2022-08-10T20:54:36.060Z,57.51
2022-08-10T20:57:55.281Z,57.99
2022-08-10T21:00:13.911Z,58.34
2022-08-10T21:02:58.662Z,57.49
2022-08-10T21:05:52.941Z,58.27
2022-08-10T21:08:30.183Z,58.26
2022-08-10T21:11:08.691Z,59.05
2022-08-10T21:14:03.919Z,59.04
2022-08-10T21:16:47.337Z,59.38
2022-08-10T21:19:52.369Z,59.21
2022-08-10T21:22:29.409Z,59.74
2022-08-10T21:25:02.792Z,59.44
2022-08-10T21:28:03.487Z,59.50
2022-08-10T21:31:00.250Z,59.41
2022-08-10T21:33:36.518Z,59.95
2022-08-10T21:36:10.616Z,60.18
2022-08-10T21:38:48.497Z,60.39
2022-08-10T21:41:57.677Z,59.98
2022-08-10T21:45:08.009Z,59.65
2022-08-10T21:48:17.284Z,59.47
2022-08-10T21:51:16.266Z,59.48
2022-08-10T21:54:25.950Z,59.86
2022-08-10T21:57:19.597Z,59.79
2022-08-10T22:03:17.384Z,59.95
2022-08-10T22:06:09.595Z,59.91
2022-08-10T22:08:59.758Z,59.88
2022-08-10T22:11:55.530Z,60.09
2022-08-10T22:14:48.027Z,60.24
2022-08-10T22:18:00.768Z,60.48
2022-08-10T22:20:46.350Z,60.84
2022-08-10T22:24:16.504Z,60.41
2022-08-10T22:27:46.352Z,59.45
2022-08-10T22:30:27.118Z,59.50
2022-08-10T22:31:28.295Z,59.73
2022-08-10T22:33:37.284Z,59.22
2022-08-10T22:36:53.554Z,59.60
2022-08-10T22:40:10.119Z,59.95
2022-08-10T22:43:10.316Z,60.37
2022-08-10T22:46:05.043Z,60.18
2022-08-10T22:48:59.148Z,60.30
2022-08-10T22:51:35.838Z,60.71
2022-08-10T22:54:30.473Z,60.72
2022-08-10T22:57:18.930Z,61.55
2022-08-10T22:59:50.426Z,61.94
2022-08-10T23:02:30.581Z,61.77
2022-08-10T23:05:06.860Z,62.26
2022-08-10T23:07:38.234Z,62.43
2022-08-10T23:10:10.305Z,62.23
2022-08-10T23:12:43.859Z,62.87
2022-08-10T23:15:38.766Z,62.50
2022-08-10T23:18:28.088Z,63.54
2022-08-10T23:20:58.361Z,63.24
2022-08-10T23:23:30.147Z,63.05
2022-08-10T23:26:01.301Z,62.98
2022-08-10T23:28:38.769Z,62.96
2022-08-10T23:32:01.124Z,63.65
2022-08-10T23:34:21.878Z,63.44
2022-08-10T23:36:52.030Z,64.07
2022-08-10T23:39:26.624Z,64.30
2022-08-10T23:42:03.269Z,64.50
2022-08-10T23:44:38.440Z,65.10
2022-08-10T23:47:09.957Z,65.73
2022-08-10T23:49:39.808Z,65.81
2022-08-10T23:52:13.473Z,65.53
2022-08-10T23:54:48.027Z,65.55
2022-08-10T23:57:21.221Z,65.92
2022-08-10T23:59:55.753Z,66.07
